Time;durP1;ratioP1;P1;durP2;ratioP2;P2;SDS_P1;SDS_P2;PMS_P1;PMS_P2;Temp;Humidity;BMP_temperature;BMP_pressure;BME280_temperature;BME280_humidity;BME280_pressure;Samples;Min_cycle;Max_cycle;Signal;HPM_P1;HPM_P2
2023/11/29 00:01:05;;;;;;;1999.90;999.90;;;1.20;99.90;;;;;;4993541;28;20420;-69
2023/11/29 00:03:31;;;;;;;1999.90;999.90;;;1.20;54.10;;;;;;4993331;28;20166;-68
2023/11/29 00:05:57;;;;;;;1999.90;999.90;;;1.20;1.00;;;;;;4993216;28;20313;-69
2023/11/29 00:08:22;;;;;;;1999.90;999.90;;;1.20;99.90;;;;;;4993272;28;20189;-69
2023/11/29 00:10:48;;;;;;;1999.90;999.90;;;1.20;99.90;;;;;;4993234;28;20408;-69
2023/11/29 00:13:14;;;;;;;1999.90;999.90;;;1.20;99.90;;;;;;4993205;28;20205;-68
2023/11/29 00:15:40;;;;;;;1999.90;999.90;;;1.20;99.90;;;;;;4992928;28;20296;-68
2023/11/29 00:18:05;;;;;;;1999.90;999.90;;;1.20;1.00;;;;;;4993155;28;20792;-68
2023/11/29 00:20:31;;;;;;;1999.90;999.90;;;1.20;99.90;;;;;;4993122;28;20185;-69
2023/11/29 00:22:57;;;;;;;1999.90;999.90;;;1.20;99.90;;;;;;4992984;28;20264;-69
2023/11/29 00:25:22;;;;;;;1999.90;999.90;;;1.20;99.90;;;;;;4993186;28;20275;-69
2023/11/29 00:27:48;;;;;;;1999.90;999.90;;;1.20;99.90;;;;;;4992721;28;20822;-68
2023/11/29 00:30:14;;;;;;;1999.90;999.90;;;1.20;99.90;;;;;;4993020;28;20231;-69
2023/11/29 00:32:40;;;;;;;1999.90;999.90;;;1.20;99.90;;;;;;4992728;28;20184;-67
2023/11/29 00:35:05;;;;;;;1999.90;999.90;;;1.20;99.90;;;;;;4992701;28;20197;-69
2023/11/29 00:37:31;;;;;;;1999.90;999.90;;;1.30;99.90;;;;;;4992532;28;20483;-68
2023/11/29 00:39:56;;;;;;;1999.90;999.90;;;1.40;99.90;;;;;;4992840;28;20162;-69
2023/11/29 00:42:22;;;;;;;1999.90;999.90;;;1.40;99.90;;;;;;4992701;28;20161;-68
2023/11/29 00:44:48;;;;;;;1999.90;999.90;;;1.40;75.40;;;;;;4992762;28;20270;-68
2023/11/29 00:47:13;;;;;;;1999.90;999.90;;;1.40;1.00;;;;;;4992662;28;20181;-69
2023/11/29 00:49:39;;;;;;;1999.90;999.90;;;1.40;1.00;;;;;;4992757;28;20178;-69
2023/11/29 00:52:05;;;;;;;1999.90;999.90;;;1.50;4.70;;;;;;4992687;28;20216;-69
2023/11/29 00:54:30;;;;;;;1999.90;999.90;;;1.60;50.50;;;;;;4992601;28;20263;-68
2023/11/29 00:56:56;;;;;;;1999.90;999.90;;;1.60;1.00;;;;;;4992609;28;20252;-68
2023/11/29 00:59:21;;;;;;;1999.90;999.90;;;1.80;47.70;;;;;;4992831;28;20208;-68
2023/11/29 01:01:47;;;;;;;1999.90;999.90;;;1.90;1.00;;;;;;4992813;28;20169;-68
2023/11/29 01:04:13;;;;;;;1999.90;999.90;;;1.90;99.90;;;;;;4992663;28;20723;-68
2023/11/29 01:06:41;;;;;;;1999.90;999.90;;;2.00;99.90;;;;;;4992361;28;20169;-69
2023/11/29 01:09:07;;;;;;;1999.90;999.90;;;2.10;83.00;;;;;;4992856;28;20584;-68
2023/11/29 01:11:33;;;;;;;1999.90;999.90;;;2.20;1.00;;;;;;4992601;28;20656;-68
2023/11/29 01:13:59;;;;;;;1999.90;999.90;;;2.20;1.00;;;;;;4992458;28;20735;-68
2023/11/29 01:16:25;;;;;;;1999.90;999.90;;;2.20;99.90;;;;;;4992235;28;20241;-68
2023/11/29 01:18:50;;;;;;;1999.90;999.90;;;2.30;1.00;;;;;;4992611;28;20183;-69
2023/11/29 01:21:19;;;;;;;1999.90;999.90;;;2.30;1.00;;;;;;4992443;28;20708;-68
2023/11/29 01:23:44;;;;;;;1999.90;999.90;;;2.20;99.90;;;;;;4992322;28;20193;-68
2023/11/29 01:26:10;;;;;;;1999.90;999.90;;;2.20;99.90;;;;;;4992418;28;20173;-68
2023/11/29 01:28:36;;;;;;;1999.90;999.90;;;2.20;1.00;;;;;;4992386;28;20208;-68
2023/11/29 01:31:08;;;;;;;1999.90;999.90;;;2.20;99.90;;;;;;4992361;28;20188;-68
2023/11/29 01:33:34;;;;;;;1999.90;999.90;;;1.70;81.60;;;;;;4992290;28;20193;-68
2023/11/29 01:36:07;;;;;;;1999.90;999.90;;;2.20;99.90;;;;;;4992047;28;20193;-68
2023/11/29 01:38:33;;;;;;;1999.90;999.90;;;2.20;1.00;;;;;;4992431;28;20232;-69
2023/11/29 01:40:58;;;;;;;1999.90;999.90;;;2.20;26.50;;;;;;4992188;28;20177;-68
2023/11/29 01:43:24;;;;;;;1999.90;999.90;;;2.10;1.00;;;;;;4992315;28;20166;-68
2023/11/29 01:45:50;;;;;;;1999.90;999.90;;;2.10;99.90;;;;;;4992012;28;20165;-68
2023/11/29 01:48:16;;;;;;;1999.90;999.90;;;2.10;1.00;;;;;;4992252;28;20221;-68
2023/11/29 01:50:45;;;;;;;1999.90;999.90;;;2.20;1.00;;;;;;4992249;28;20174;-68
2023/11/29 01:53:11;;;;;;;1999.90;999.90;;;2.10;1.00;;;;;;4992368;28;20538;-68
2023/11/29 01:55:38;;;;;;;1999.90;999.90;;;2.10;1.00;;;;;;4991715;28;20233;-69
2023/11/29 01:58:04;;;;;;;1999.90;999.90;;;2.00;6.70;;;;;;4991986;28;20252;-68
2023/11/29 02:00:30;;;;;;;1999.90;999.90;;;2.00;99.90;;;;;;4992116;28;20261;-68
2023/11/29 02:02:55;;;;;;;1999.90;999.90;;;2.00;1.00;;;;;;4992117;28;20584;-69
2023/11/29 02:05:21;;;;;;;1999.90;999.90;;;2.00;1.00;;;;;;4992052;28;20432;-69
2023/11/29 02:07:47;;;;;;;1999.90;999.90;;;2.00;1.00;;;;;;4992258;28;20205;-67
2023/11/29 02:10:12;;;;;;;1999.90;999.90;;;2.00;99.90;;;;;;4991952;28;20181;-68
2023/11/29 02:12:38;;;;;;;1999.90;999.90;;;2.10;99.90;;;;;;4992718;28;20177;-68
2023/11/29 02:15:04;;;;;;;1999.90;999.90;;;2.10;99.90;;;;;;4995477;28;20201;-69
2023/11/29 02:17:30;;;;;;;1999.90;999.90;;;2.10;99.90;;;;;;4995385;28;20411;-68
2023/11/29 02:19:55;;;;;;;1999.90;999.90;;;2.10;1.00;;;;;;4995411;28;20914;-69
2023/11/29 02:22:23;;;;;;;1999.90;999.90;;;2.10;99.90;;;;;;4995385;28;20170;-67
2023/11/29 02:24:49;;;;;;;1999.90;999.90;;;2.10;99.90;;;;;;4995344;28;20272;-68
2023/11/29 02:27:15;;;;;;;1999.90;999.90;;;1.10;99.90;;;;;;4995062;28;20220;-68
2023/11/29 02:29:40;;;;;;;1999.90;999.90;;;2.10;1.00;;;;;;4995265;28;20265;-68
2023/11/29 02:32:06;;;;;;;1999.90;999.90;;;2.10;1.00;;;;;;4995220;28;20174;-68
2023/11/29 02:34:32;;;;;;;1999.90;999.90;;;2.00;99.90;;;;;;4995015;28;20197;-69
2023/11/29 02:36:57;;;;;;;1999.90;999.90;;;2.10;1.00;;;;;;4994878;28;20411;-69
2023/11/29 02:39:23;;;;;;;1999.90;999.90;;;2.00;78.20;;;;;;4995113;28;20912;-68
2023/11/29 02:41:49;;;;;;;1999.90;999.90;;;2.00;99.90;;;;;;4995105;28;20273;-68
2023/11/29 02:44:14;;;;;;;1999.90;999.90;;;2.00;99.90;;;;;;4994907;28;20186;-69
2023/11/29 02:46:40;;;;;;;1999.90;999.90;;;1.90;1.00;;;;;;4994873;28;20176;-69
2023/11/29 02:49:05;;;;;;;1999.90;999.90;;;1.90;1.00;;;;;;4995110;28;20197;-68
2023/11/29 02:51:31;;;;;;;1999.90;999.90;;;1.80;1.00;;;;;;4995013;28;20165;-68
2023/11/29 02:53:56;;;;;;;1999.90;999.90;;;1.80;1.00;;;;;;4994779;28;20228;-68
2023/11/29 02:56:22;;;;;;;1999.90;999.90;;;1.80;99.90;;;;;;4994668;28;20209;-68
2023/11/29 02:58:48;;;;;;;1999.90;999.90;;;1.80;99.90;;;;;;4994951;28;20181;-68
2023/11/29 03:01:13;;;;;;;1999.90;999.90;;;1.80;99.90;;;;;;4994861;28;20258;-68
2023/11/29 03:03:39;;;;;;;1999.90;999.90;;;1.80;99.90;;;;;;4994673;28;20193;-68
2023/11/29 03:06:05;;;;;;;1999.90;999.90;;;1.80;99.90;;;;;;4994727;28;20235;-68
2023/11/29 03:08:31;;;;;;;1999.90;999.90;;;1.90;99.90;;;;;;4994608;28;20185;-68
2023/11/29 03:10:56;;;;;;;1999.90;999.90;;;1.80;99.90;;;;;;4994607;28;20173;-68
2023/11/29 03:13:27;;;;;;;1999.90;999.90;;;1.90;1.00;;;;;;4994370;28;20641;-68
2023/11/29 03:15:52;;;;;;;1999.90;999.90;;;1.80;1.00;;;;;;4994294;28;20193;-68
2023/11/29 03:18:18;;;;;;;1999.90;999.90;;;1.90;1.00;;;;;;4994385;28;20180;-68
2023/11/29 03:20:44;;;;;;;1999.90;999.90;;;1.90;1.00;;;;;;4994475;28;20249;-68
2023/11/29 03:23:09;;;;;;;1999.90;999.90;;;1.90;1.00;;;;;;4994477;28;20162;-68
2023/11/29 03:25:35;;;;;;;1999.90;999.90;;;1.90;1.00;;;;;;4993340;28;20276;-69
2023/11/29 03:28:00;;;;;;;1999.90;999.90;;;1.90;99.90;;;;;;4994081;28;20178;-69
2023/11/29 03:30:26;;;;;;;1999.90;999.90;;;2.00;99.90;;;;;;4994165;28;20665;-68
2023/11/29 03:32:51;;;;;;;1999.90;999.90;;;2.00;99.90;;;;;;4994156;28;20637;-68
2023/11/29 03:35:17;;;;;;;1999.90;999.90;;;2.00;99.90;;;;;;4994061;28;20202;-69
2023/11/29 03:37:43;;;;;;;1999.90;999.90;;;2.00;99.90;;;;;;4993990;28;20180;-69
2023/11/29 03:40:09;;;;;;;1999.90;999.90;;;2.00;99.90;;;;;;4994032;28;20645;-68
2023/11/29 03:42:34;;;;;;;1999.90;999.90;;;2.10;99.90;;;;;;4994001;28;20174;-68
2023/11/29 03:45:02;;;;;;;1999.90;999.90;;;2.00;99.90;;;;;;4993904;28;20197;-68
2023/11/29 03:47:28;;;;;;;1999.90;999.90;;;2.10;99.90;;;;;;4993624;28;20184;-68
2023/11/29 03:49:53;;;;;;;1999.90;999.90;;;2.10;99.90;;;;;;4993870;28;20182;-68
2023/11/29 03:52:19;;;;;;;1999.90;999.90;;;2.20;99.90;;;;;;4993644;28;20684;-69
2023/11/29 03:54:45;;;;;;;1999.90;999.90;;;2.20;99.90;;;;;;4993509;28;20220;-68
2023/11/29 03:57:11;;;;;;;1999.90;999.90;;;2.20;99.90;;;;;;4993480;28;20166;-68
2023/11/29 03:59:37;;;;;;;1999.90;999.90;;;2.30;99.90;;;;;;4993688;28;20181;-68
2023/11/29 04:02:02;;;;;;;1999.90;999.90;;;2.30;99.90;;;;;;4993579;28;20479;-68
2023/11/29 04:04:28;;;;;;;1999.90;999.90;;;2.40;99.90;;;;;;4993550;28;20669;-68
2023/11/29 04:06:53;;;;;;;1999.90;999.90;;;2.40;99.90;;;;;;4993278;28;20177;-69
2023/11/29 04:09:19;;;;;;;1999.90;999.90;;;2.40;99.90;;;;;;4993623;28;20176;-68
2023/11/29 04:11:46;;;;;;;1999.90;999.90;;;2.40;99.90;;;;;;4993453;28;20795;-68
2023/11/29 04:14:11;;;;;;;1999.90;999.90;;;2.40;99.90;;;;;;4993264;28;20232;-68
2023/11/29 04:16:37;;;;;;;1999.90;999.90;;;2.50;99.90;;;;;;4993201;28;20663;-69
2023/11/29 04:19:02;;;;;;;1999.90;999.90;;;2.50;99.90;;;;;;4993338;28;20173;-69
2023/11/29 04:21:31;;;;;;;1999.90;999.90;;;2.50;99.90;;;;;;4993088;28;20608;-68
2023/11/29 04:23:58;;;;;;;1999.90;999.90;;;2.50;99.90;;;;;;4993020;28;20190;-69
2023/11/29 04:26:26;;;;;;;1999.90;999.90;;;2.50;99.90;;;;;;4993349;28;20178;-69
2023/11/29 04:28:51;;;;;;;1999.90;999.90;;;2.50;99.90;;;;;;4992981;28;20549;-68
2023/11/29 04:31:17;;;;;;;1999.90;999.90;;;2.50;99.90;;;;;;4992973;28;20174;-69
2023/11/29 04:33:43;;;;;;;1999.90;999.90;;;2.50;99.90;;;;;;4992885;28;20200;-69
2023/11/29 04:36:09;;;;;;;1999.90;999.90;;;2.60;99.90;;;;;;4992397;28;20216;-68
2023/11/29 04:38:35;;;;;;;1999.90;999.90;;;2.60;99.90;;;;;;4992879;28;20197;-69
2023/11/29 04:41:00;;;;;;;1999.90;999.90;;;2.60;99.90;;;;;;4992813;28;20238;-68
2023/11/29 04:43:26;;;;;;;1999.90;999.90;;;2.40;99.90;;;;;;4992704;28;20178;-68
2023/11/29 04:45:51;;;;;;;1999.90;999.90;;;2.70;99.90;;;;;;4992595;28;20165;-69
2023/11/29 04:48:17;;;;;;;1999.90;999.90;;;2.60;99.90;;;;;;4992766;28;20165;-68
2023/11/29 04:50:42;;;;;;;1999.90;999.90;;;2.60;99.90;;;;;;4992669;28;20261;-68
2023/11/29 04:53:08;;;;;;;1999.90;999.90;;;2.60;99.90;;;;;;4992620;28;20181;-67
2023/11/29 04:55:34;;;;;;;1999.90;999.90;;;2.50;99.90;;;;;;4992758;28;20591;-67
2023/11/29 04:57:59;;;;;;;1999.90;999.90;;;2.50;99.90;;;;;;4992924;28;20240;-67
2023/11/29 05:00:25;;;;;;;1999.90;999.90;;;2.50;99.90;;;;;;4992730;28;20637;-67
2023/11/29 05:02:51;;;;;;;1999.90;999.90;;;2.40;1.00;;;;;;4992807;28;20256;-67
2023/11/29 05:05:17;;;;;;;1999.90;999.90;;;2.40;1.00;;;;;;4992678;28;20292;-68
2023/11/29 05:07:42;;;;;;;1999.90;999.90;;;2.30;1.00;;;;;;4992416;28;20212;-68
2023/11/29 05:10:08;;;;;;;1999.90;999.90;;;2.30;1.00;;;;;;4992648;28;20178;-67
2023/11/29 05:12:34;;;;;;;1999.90;999.90;;;2.20;1.00;;;;;;4992422;28;20169;-67
2023/11/29 05:14:59;;;;;;;1999.90;999.90;;;2.20;1.00;;;;;;4992392;28;20467;-67
2023/11/29 05:17:25;;;;;;;1999.90;999.90;;;2.20;1.00;;;;;;4992341;28;20177;-68
2023/11/29 05:19:50;;;;;;;1999.90;999.90;;;2.10;1.00;;;;;;4992522;28;20589;-67
2023/11/29 05:22:16;;;;;;;1999.90;999.90;;;2.10;1.00;;;;;;4992323;28;20169;-67
2023/11/29 05:24:42;;;;;;;1999.90;999.90;;;2.20;1.00;;;;;;4992424;28;20265;-68
2023/11/29 05:27:08;;;;;;;1999.90;999.90;;;2.10;1.00;;;;;;4992174;28;20455;-68
2023/11/29 05:29:35;;;;;;;1999.90;999.90;;;2.20;1.00;;;;;;4992367;28;20174;-67
2023/11/29 05:32:00;;;;;;;1999.90;999.90;;;2.20;1.00;;;;;;4992349;28;20512;-67
2023/11/29 05:34:26;;;;;;;1999.90;999.90;;;2.20;1.00;;;;;;4992328;28;20272;-68
2023/11/29 05:36:52;;;;;;;1999.90;999.90;;;2.20;1.00;;;;;;4992049;28;20170;-68
2023/11/29 05:39:19;;;;;;;1999.90;999.90;;;2.20;1.00;;;;;;4992309;28;20177;-68
2023/11/29 05:41:45;;;;;;;1999.90;999.90;;;2.30;1.00;;;;;;4992207;28;20173;-68
2023/11/29 05:44:11;;;;;;;1999.90;999.90;;;2.30;1.00;;;;;;4991898;28;20197;-68
2023/11/29 05:46:36;;;;;;;1999.90;999.90;;;2.40;1.00;;;;;;4990605;28;21091;-68
2023/11/29 05:49:03;;;;;;;1999.90;999.90;;;2.40;1.00;;;;;;4995280;28;20544;-68
2023/11/29 05:51:29;;;;;;;1999.90;999.90;;;2.50;1.00;;;;;;4995875;28;20165;-67
2023/11/29 05:53:55;;;;;;;1999.90;999.90;;;2.50;1.00;;;;;;4995725;28;20209;-67
2023/11/29 05:56:21;;;;;;;1999.90;999.90;;;2.40;1.00;;;;;;4995984;28;20189;-66
2023/11/29 05:58:47;;;;;;;1999.90;999.90;;;2.40;1.00;;;;;;4995050;28;20176;-66
2023/11/29 06:01:12;;;;;;;1999.90;999.90;;;2.40;1.00;;;;;;4995721;28;20839;-66
2023/11/29 06:03:38;;;;;;;1999.90;999.90;;;2.10;1.00;;;;;;4995717;28;20208;-67
2023/11/29 06:06:04;;;;;;;1999.90;999.90;;;2.20;1.00;;;;;;4995454;28;20166;-67
2023/11/29 06:08:29;;;;;;;1999.90;999.90;;;2.20;1.00;;;;;;4995634;28;20204;-66
2023/11/29 06:10:55;;;;;;;1999.90;999.90;;;2.20;1.00;;;;;;4995549;28;20176;-67
2023/11/29 06:13:22;;;;;;;1999.90;999.90;;;2.30;93.00;;;;;;4995409;28;20178;-66
2023/11/29 06:15:49;;;;;;;1999.90;999.90;;;2.20;40.20;;;;;;4995345;28;20205;-66
2023/11/29 06:18:15;;;;;;;1999.90;999.90;;;2.20;80.30;;;;;;4995437;28;20266;-68
2023/11/29 06:20:41;;;;;;;1999.90;999.90;;;2.20;99.90;;;;;;4995351;28;20173;-67
2023/11/29 06:23:07;;;;;;;1999.90;999.90;;;2.20;99.90;;;;;;4995388;28;20178;-68
2023/11/29 06:25:34;;;;;;;1999.90;999.90;;;2.20;99.90;;;;;;4995189;28;20455;-67
2023/11/29 06:27:59;;;;;;;1999.90;999.90;;;2.20;99.90;;;;;;4995294;28;20182;-68
2023/11/29 06:30:25;;;;;;;1999.90;999.90;;;2.20;99.90;;;;;;4995212;28;20652;-67
2023/11/29 06:32:51;;;;;;;1999.90;999.90;;;2.20;99.90;;;;;;4995324;28;20252;-68
2023/11/29 06:35:17;;;;;;;1999.90;999.90;;;2.20;99.90;;;;;;4994890;28;20685;-67
2023/11/29 06:37:47;;;;;;;1999.90;999.90;;;2.20;99.90;;;;;;4994862;28;20182;-68
2023/11/29 06:40:16;;;;;;;1999.90;999.90;;;2.10;99.90;;;;;;4994910;28;20265;-68
2023/11/29 06:42:42;;;;;;;1999.90;999.90;;;2.10;99.90;;;;;;4994993;28;20162;-68
2023/11/29 06:45:11;;;;;;;1999.90;999.90;;;2.10;99.90;;;;;;4994875;28;20206;-68
2023/11/29 06:47:38;;;;;;;1999.90;999.90;;;2.10;99.90;;;;;;4994756;28;20196;-68
2023/11/29 06:50:04;;;;;;;1999.90;999.90;;;2.10;99.90;;;;;;4994810;28;20182;-68
2023/11/29 06:52:31;;;;;;;1999.90;999.90;;;2.10;99.90;;;;;;4994670;28;20169;-69
2023/11/29 06:54:57;;;;;;;1999.90;999.90;;;2.10;99.90;;;;;;4994816;28;20304;-68
2023/11/29 06:57:23;;;;;;;1999.90;999.90;;;2.00;99.90;;;;;;4994660;28;20281;-69
2023/11/29 06:59:49;;;;;;;1999.90;999.90;;;2.00;99.90;;;;;;4994600;28;20166;-69
2023/11/29 07:02:14;;;;;;;1999.90;999.90;;;2.00;99.90;;;;;;4994563;28;20526;-68
2023/11/29 07:04:43;;;;;;;1999.90;999.90;;;2.00;99.90;;;;;;4994466;28;20432;-68
2023/11/29 07:07:10;;;;;;;1999.90;999.90;;;2.00;99.90;;;;;;4994329;28;20172;-68
2023/11/29 07:09:36;;;;;;;1999.90;999.90;;;2.00;99.90;;;;;;4994487;28;20539;-68
2023/11/29 07:12:04;;;;;;;1999.90;999.90;;;2.00;99.90;;;;;;4994446;28;20177;-68
2023/11/29 07:14:30;;;;;;;1999.90;999.90;;;2.00;99.90;;;;;;4994394;28;20190;-68
2023/11/29 07:16:56;;;;;;;1999.90;999.90;;;2.00;99.90;;;;;;4994207;28;20178;-68
2023/11/29 07:19:22;;;;;;;1999.90;999.90;;;2.00;99.90;;;;;;4994356;28;20416;-68
2023/11/29 07:21:47;;;;;;;1999.90;999.90;;;2.00;99.90;;;;;;4994211;28;20174;-69
2023/11/29 07:24:13;;;;;;;1999.90;999.90;;;2.00;99.90;;;;;;4993698;28;20551;-69
2023/11/29 07:26:39;;;;;;;1999.90;999.90;;;2.10;99.90;;;;;;4993856;28;20181;-69
2023/11/29 07:29:05;;;;;;;1999.90;999.90;;;2.10;99.90;;;;;;4994057;28;20185;-70
2023/11/29 07:31:33;;;;;;;1999.90;999.90;;;2.10;99.90;;;;;;4994001;28;20178;-70
2023/11/29 07:33:58;;;;;;;1999.90;999.90;;;2.10;99.90;;;;;;4993918;28;20669;-69
2023/11/29 07:36:24;;;;;;;1999.90;999.90;;;2.20;99.90;;;;;;4993907;28;20216;-70
2023/11/29 07:38:50;;;;;;;1999.90;999.90;;;2.20;99.90;;;;;;4993925;28;20686;-70
2023/11/29 07:41:17;;;;;;;1999.90;999.90;;;2.30;99.90;;;;;;4994019;28;20592;-69
2023/11/29 07:43:43;;;;;;;1999.90;999.90;;;2.40;99.90;;;;;;4993877;28;20661;-69
2023/11/29 07:46:09;;;;;;;1999.90;999.90;;;2.40;99.90;;;;;;4993715;28;20180;-70
2023/11/29 07:48:35;;;;;;;1999.90;999.90;;;2.50;99.90;;;;;;4993651;28;20193;-69
2023/11/29 07:51:01;;;;;;;1999.90;999.90;;;2.60;99.90;;;;;;4993720;28;20169;-68
2023/11/29 07:53:28;;;;;;;1999.90;999.90;;;2.60;99.90;;;;;;4993376;28;20963;-70
2023/11/29 07:55:54;;;;;;;1999.90;999.90;;;2.70;99.90;;;;;;4993457;28;20213;-69
2023/11/29 07:58:19;;;;;;;1999.90;999.90;;;2.70;99.90;;;;;;4993698;28;20220;-68
2023/11/29 08:00:46;;;;;;;1999.90;999.90;;;2.70;99.90;;;;;;4993486;28;20405;-68
2023/11/29 08:03:12;;;;;;;1999.90;999.90;;;2.80;99.90;;;;;;4993451;28;20206;-69
2023/11/29 08:05:38;;;;;;;1999.90;999.90;;;2.80;99.90;;;;;;4993305;28;20276;-69
2023/11/29 08:08:04;;;;;;;1999.90;999.90;;;2.80;99.90;;;;;;4993203;28;20589;-68
2023/11/29 08:10:30;;;;;;;1999.90;999.90;;;2.80;99.90;;;;;;4992842;28;20186;-68
2023/11/29 08:12:58;;;;;;;1999.90;999.90;;;2.90;99.90;;;;;;4993293;28;20420;-70
2023/11/29 08:15:23;;;;;;;1999.90;999.90;;;2.80;99.90;;;;;;4992747;28;20214;-68
2023/11/29 08:17:49;;;;;;;1999.90;999.90;;;2.80;99.90;;;;;;4992400;28;20170;-68
2023/11/29 08:20:15;;;;;;;1999.90;999.90;;;2.90;99.90;;;;;;4992276;28;20248;-68
2023/11/29 08:22:40;;;;;;;1999.90;999.90;;;2.90;99.90;;;;;;4992544;28;20166;-68
2023/11/29 08:25:07;;;;;;;1999.90;999.90;;;2.90;99.90;;;;;;4992462;28;20195;-68
2023/11/29 08:27:34;;;;;;;1999.90;999.90;;;2.90;99.90;;;;;;4992304;28;20264;-68
2023/11/29 08:29:59;;;;;;;1999.90;999.90;;;2.90;99.90;;;;;;4992696;28;20244;-68
2023/11/29 08:32:25;;;;;;;1999.90;999.90;;;2.90;99.90;;;;;;4992899;28;20174;-69
2023/11/29 08:34:50;;;;;;;1999.90;999.90;;;2.90;99.90;;;;;;4992749;28;20189;-69
2023/11/29 08:37:17;;;;;;;1999.90;999.90;;;3.00;99.90;;;;;;4992693;28;20217;-69
2023/11/29 08:39:43;;;;;;;1999.90;999.90;;;3.00;99.90;;;;;;4992960;28;20178;-68
2023/11/29 08:42:11;;;;;;;1999.90;999.90;;;3.10;99.90;;;;;;4992829;28;20265;-68
2023/11/29 08:44:37;;;;;;;1999.90;999.90;;;3.10;99.90;;;;;;4992715;28;20181;-68
2023/11/29 08:47:03;;;;;;;1999.90;999.90;;;3.10;99.90;;;;;;4992434;28;20224;-69
2023/11/29 08:49:29;;;;;;;1999.90;999.90;;;3.10;99.90;;;;;;4993022;28;20243;-69
2023/11/29 08:51:55;;;;;;;1999.90;999.90;;;3.10;99.90;;;;;;4992621;28;20174;-68
2023/11/29 08:54:22;;;;;;;1999.90;999.90;;;3.10;99.90;;;;;;4992991;28;20685;-69
2023/11/29 08:56:47;;;;;;;1999.90;999.90;;;3.10;99.90;;;;;;4994467;28;20209;-70
2023/11/29 08:59:13;;;;;;;1999.90;999.90;;;3.10;99.90;;;;;;4995188;28;20219;-69
2023/11/29 09:01:40;;;;;;;1999.90;999.90;;;3.10;99.90;;;;;;4994730;28;20404;-69
2023/11/29 09:04:05;;;;;;;1999.90;999.90;;;3.10;99.90;;;;;;4994758;28;20189;-69
2023/11/29 09:06:31;;;;;;;1999.90;999.90;;;3.10;99.90;;;;;;4995175;28;20317;-70
2023/11/29 09:08:58;;;;;;;1999.90;999.90;;;3.20;99.90;;;;;;4995439;28;20408;-70
2023/11/29 09:11:24;;;;;;;1999.90;999.90;;;3.20;99.90;;;;;;4995347;28;20641;-69
2023/11/29 09:13:50;;;;;;;1999.90;999.90;;;3.30;99.90;;;;;;4995572;28;20508;-69
2023/11/29 09:16:16;;;;;;;1999.90;999.90;;;3.30;99.90;;;;;;4995456;28;20506;-69
2023/11/29 09:18:44;;;;;;;1999.90;999.90;;;3.30;99.90;;;;;;4996266;28;20165;-69
2023/11/29 09:21:10;;;;;;;1999.90;999.90;;;3.30;99.90;;;;;;4996588;28;20173;-69
2023/11/29 09:23:38;;;;;;;1999.90;999.90;;;3.90;99.90;;;;;;4999656;28;20177;-69
2023/11/29 09:26:04;;;;;;;1999.90;999.90;;;3.40;99.90;;;;;;4999959;28;20165;-70
2023/11/29 09:28:30;;;;;;;1999.90;999.90;;;3.50;99.90;;;;;;5000434;28;20304;-69
2023/11/29 09:30:58;;;;;;;1999.90;999.90;;;3.50;99.90;;;;;;5000693;28;20177;-69
2023/11/29 09:33:23;;;;;;;1999.90;999.90;;;3.60;99.90;;;;;;5000361;28;20184;-69
2023/11/29 09:35:49;;;;;;;1999.90;999.90;;;3.60;99.90;;;;;;5000159;28;20208;-69
2023/11/29 09:38:16;;;;;;;1999.90;999.90;;;3.70;94.10;;;;;;4999904;28;20229;-70
2023/11/29 09:40:42;;;;;;;1999.90;999.90;;;3.80;71.90;;;;;;5001056;28;20178;-69
2023/11/29 09:43:08;;;;;;;1999.90;999.90;;;3.80;24.40;;;;;;5001248;28;20196;-69
2023/11/29 09:45:34;;;;;;;1999.90;999.90;;;3.80;1.00;;;;;;5000699;28;20276;-69
2023/11/29 09:48:00;;;;;;;1999.90;999.90;;;3.80;1.00;;;;;;5000973;28;20239;-69
2023/11/29 09:50:27;;;;;;;1999.90;999.90;;;3.80;1.00;;;;;;5000571;28;20451;-68
2023/11/29 09:53:00;;;;;;;1999.90;999.90;;;3.70;1.00;;;;;;5001137;28;20428;-70
2023/11/29 09:55:27;;;;;;;1999.90;999.90;;;3.70;1.00;;;;;;5000885;28;20228;-69
2023/11/29 09:57:53;;;;;;;1999.90;999.90;;;3.70;1.00;;;;;;5000941;28;20417;-69
2023/11/29 10:00:18;;;;;;;1999.90;999.90;;;3.60;1.00;;;;;;5002044;28;20173;-69
2023/11/29 10:02:44;;;;;;;1999.90;999.90;;;3.70;1.00;;;;;;5001714;28;20170;-68
2023/11/29 10:05:17;;;;;;;1999.90;999.90;;;5.10;1.00;;;;;;5001285;28;20533;-69
2023/11/29 10:07:44;;;;;;;1999.90;999.90;;;3.50;1.00;;;;;;5001499;28;20174;-70
2023/11/29 10:10:12;;;;;;;1999.90;999.90;;;3.60;1.00;;;;;;5001981;28;20408;-69
2023/11/29 10:12:38;;;;;;;1999.90;999.90;;;3.60;4.40;;;;;;5001324;28;20427;-69
2023/11/29 10:15:05;;;;;;;1999.90;999.90;;;3.70;12.30;;;;;;5000480;28;20197;-68
2023/11/29 10:17:30;;;;;;;1999.90;999.90;;;3.70;1.50;;;;;;5000391;28;20405;-69
2023/11/29 10:19:56;;;;;;;1999.90;999.90;;;3.80;1.00;;;;;;5000695;28;20173;-69
2023/11/29 10:22:22;;;;;;;1999.90;999.90;;;3.80;1.00;;;;;;5000543;28;20233;-68
2023/11/29 10:24:48;;;;;;;1999.90;999.90;;;3.80;1.00;;;;;;5000879;28;20197;-69
2023/11/29 10:27:16;;;;;;;1999.90;999.90;;;3.90;1.00;;;;;;5001044;28;20512;-69
2023/11/29 10:29:42;;;;;;;1999.90;999.90;;;4.00;1.00;;;;;;5001429;28;20550;-68
2023/11/29 10:32:08;;;;;;;1999.90;999.90;;;4.00;1.00;;;;;;5000799;28;20408;-70
2023/11/29 10:34:34;;;;;;;1999.90;999.90;;;4.00;1.00;;;;;;5000718;28;20194;-69
2023/11/29 10:37:02;;;;;;;1999.90;999.90;;;4.10;1.00;;;;;;4999858;28;20206;-68
2023/11/29 10:39:36;;;;;;;1999.90;999.90;;;4.00;1.00;;;;;;5000674;28;20526;-69
2023/11/29 10:42:08;;;;;;;1999.90;999.90;;;4.00;1.00;;;;;;5000734;28;20429;-69
2023/11/29 10:44:46;;;;;;;1999.90;999.90;;;4.00;1.00;;;;;;5000148;28;20436;-69
2023/11/29 10:47:22;;;;;;;1999.90;999.90;;;4.10;1.00;;;;;;5000041;28;20261;-68
2023/11/29 10:50:02;;;;;;;1999.90;999.90;;;4.20;1.00;;;;;;5001115;28;20500;-69
2023/11/29 10:52:28;;;;;;;1999.90;999.90;;;4.20;1.00;;;;;;5000143;28;20419;-69
2023/11/29 10:54:54;;;;;;;1999.90;999.90;;;4.20;1.00;;;;;;4999561;28;20445;-69
2023/11/29 10:57:56;;;;;;;1999.90;999.90;;;4.30;1.00;;;;;;5000137;28;20181;-69
2023/11/29 11:00:28;;;;;;;1999.90;999.90;;;4.30;1.00;;;;;;4991603;28;20581;-69
2023/11/29 11:02:54;;;;;;;1999.90;999.90;;;4.20;1.00;;;;;;5000402;28;20169;-70
2023/11/29 11:05:24;;;;;;;1999.90;999.90;;;4.20;1.00;;;;;;4999579;28;20248;-70
2023/11/29 11:07:51;;;;;;;1999.90;999.90;;;4.20;1.00;;;;;;4999783;28;20666;-69
2023/11/29 11:10:24;;;;;;;1999.90;999.90;;;4.10;1.00;;;;;;5000396;28;20243;-69
2023/11/29 11:12:51;;;;;;;1999.90;999.90;;;4.20;1.00;;;;;;4999258;28;20165;-69
2023/11/29 11:15:20;;;;;;;1999.90;999.90;;;4.20;1.00;;;;;;4999123;28;21034;-69
2023/11/29 11:18:10;;;;;;;1999.90;999.90;;;4.20;1.00;;;;;;4999454;28;20475;-69
2023/11/29 11:20:40;;;;;;;1999.90;999.90;;;4.10;1.00;;;;;;4995773;28;20425;-69
2023/11/29 11:23:06;;;;;;;1999.90;999.90;;;4.10;1.00;;;;;;4999810;28;20413;-69
2023/11/29 11:25:32;;;;;;;1999.90;999.90;;;4.10;1.00;;;;;;4998742;28;20795;-69
2023/11/29 11:27:57;;;;;;;1999.90;999.90;;;4.10;1.00;;;;;;4998702;28;20188;-69
2023/11/29 11:30:25;;;;;;;1999.90;999.90;;;4.20;1.00;;;;;;4999813;28;20232;-69
2023/11/29 11:32:53;;;;;;;1999.90;999.90;;;4.20;1.00;;;;;;4999187;28;20166;-69
2023/11/29 11:35:25;;;;;;;1999.90;999.90;;;4.10;1.00;;;;;;4999582;28;20507;-70
2023/11/29 11:37:56;;;;;;;1999.90;999.90;;;4.10;1.00;;;;;;4999790;28;20162;-69
2023/11/29 11:40:29;;;;;;;1999.90;999.90;;;4.20;1.00;;;;;;4998377;28;20339;-69
2023/11/29 11:42:56;;;;;;;1999.90;999.90;;;4.20;1.00;;;;;;4998329;28;20408;-70
2023/11/29 11:45:23;;;;;;;1999.90;999.90;;;4.10;1.00;;;;;;4997943;28;20952;-69
2023/11/29 11:47:49;;;;;;;1999.90;999.90;;;4.20;1.00;;;;;;4996826;28;20416;-69
2023/11/29 11:50:16;;;;;;;1999.90;999.90;;;4.20;1.00;;;;;;4999410;28;20411;-69
2023/11/29 11:52:42;;;;;;;1999.90;999.90;;;4.20;1.00;;;;;;4998890;28;20182;-69
2023/11/29 11:55:09;;;;;;;1999.90;999.90;;;4.20;1.00;;;;;;4998884;28;20859;-69
2023/11/29 11:57:36;;;;;;;1999.90;999.90;;;4.30;1.00;;;;;;4998589;28;20170;-69
2023/11/29 12:00:06;;;;;;;1999.90;999.90;;;4.30;1.00;;;;;;4997847;28;20425;-69
2023/11/29 12:02:33;;;;;;;1999.90;999.90;;;4.30;1.00;;;;;;4999129;28;20261;-69
2023/11/29 12:04:59;;;;;;;1999.90;999.90;;;4.30;1.00;;;;;;4994449;28;20869;-69
2023/11/29 12:07:25;;;;;;;1999.90;999.90;;;4.30;1.00;;;;;;4990039;28;20420;-67